West End, New York
Current Conditions -  °F | °C
As of 3:15 AM on Tuesday 27 Jan 2015 (Local Time) from KNY0 Reporting Station
Overcast Overcast  
Wind Chill: 15°   Ceiling: 10000
Heat Index: 15°   Visibility: 10mi
Dew Point: -3°   Wind: 0mph
Humidity: 47%   Direction: NA
Pressure: 29.82"   Gusts: NA
Location:  42.4787°N, 75.0181°W
Report Text: KNY0 270815Z AUTO 00000KT 10SM OVC100 M10/M19 A2982 RMK AO2 T10971192
Loading
Personal Weather Stations






























Interactive Weather Map New forecast layout! Learn more

10-Day Weather Forecast

Advertisements
Track Severe Weather on mobile